Time;durP1;ratioP1;P1;durP2;ratioP2;P2;SDS_P1;SDS_P2;PMS_P1;PMS_P2;Temp;Humidity;BMP_temperature;BMP_pressure;BME280_temperature;BME280_humidity;BME280_pressure;Samples;Min_cycle;Max_cycle;Signal;HPM_P1;HPM_P2
2024/03/05 00:12:11;;;;;;;33.80;16.90;;;;;;;7.55;72.17;100175.94;677915;1265;139714;-78
2024/03/05 00:27:15;;;;;;;37.30;16.20;;;;;;;7.42;72.66;100180.34;675005;1266;139865;-78
2024/03/05 00:42:18;;;;;;;44.00;19.60;;;;;;;7.22;73.67;100181.19;677246;1263;139437;-78
2024/03/05 00:57:22;;;;;;;35.20;17.60;;;;;;;7.17;74.50;100178.81;676403;1266;139778;-79
2024/03/05 01:12:25;;;;;;;30.00;14.70;;;;;;;7.00;75.06;100185.92;677631;1266;139559;-78
2024/03/05 01:27:28;;;;;;;26.20;13.30;;;;;;;6.76;75.39;100192.07;672725;1265;139295;-79
2024/03/05 01:42:33;;;;;;;37.30;18.80;;;;;;;6.60;76.08;100189.24;675781;1266;139203;-79
2024/03/05 01:57:37;;;;;;;30.60;14.10;;;;;;;6.54;76.85;100191.77;674462;1267;139201;-80
2024/03/05 02:12:41;;;;;;;33.20;15.00;;;;;;;6.35;76.73;100195.55;671933;1266;138878;-78
2024/03/05 02:27:45;;;;;;;33.80;16.30;;;;;;;6.35;78.09;100193.27;676216;1266;139336;-79
2024/03/05 02:42:49;;;;;;;30.30;14.60;;;;;;;6.45;78.85;100202.44;675234;1264;139146;-79
2024/03/05 02:57:52;;;;;;;59.30;22.40;;;;;;;6.52;79.14;100192.58;674993;1278;139842;-79
2024/03/05 03:12:56;;;;;;;31.20;13.80;;;;;;;6.33;79.14;100197.60;674009;1265;138707;-80
2024/03/05 03:28:00;;;;;;;27.60;14.10;;;;;;;6.30;79.17;100193.48;674636;1267;139558;-80
2024/03/05 03:43:04;;;;;;;30.90;17.10;;;;;;;6.17;79.40;100196.14;672933;1262;139744;-79
2024/03/05 03:58:07;;;;;;;21.80;12.10;;;;;;;6.04;80.06;100192.86;673544;1265;139317;-79
2024/03/05 04:13:12;;;;;;;23.30;13.30;;;;;;;5.94;80.26;100207.09;674558;1266;139273;-80
2024/03/05 04:28:16;;;;;;;41.10;19.40;;;;;;;5.88;79.73;100208.39;677691;1266;139637;-80
2024/03/05 04:43:20;;;;;;;27.30;13.40;;;;;;;5.87;79.96;100198.73;675057;1266;139222;-79
2024/03/05 04:58:24;;;;;;;28.30;14.50;;;;;;;5.70;79.87;100203.18;674533;1269;138766;-79
2024/03/05 05:13:27;;;;;;;28.40;15.20;;;;;;;5.43;79.69;100205.85;677602;1263;138564;-79
2024/03/05 05:28:31;;;;;;;38.60;18.60;;;;;;;4.87;82.01;100205.90;676364;1263;139555;-79
2024/03/05 05:43:34;;;;;;;30.30;13.90;;;;;;;4.55;84.57;100212.66;675560;1267;139729;-79
2024/03/05 05:58:38;;;;;;;86.70;24.60;;;;;;;4.38;86.82;100214.90;678192;1263;138637;-80
2024/03/05 06:13:44;;;;;;;29.80;14.20;;;;;;;4.48;87.82;100217.39;675996;1273;139189;-81
2024/03/05 06:28:47;;;;;;;139.70;55.30;;;;;;;4.50;89.11;100222.36;677760;1268;140034;-80
2024/03/05 06:43:51;;;;;;;306.10;105.20;;;;;;;4.69;90.44;100226.86;675000;1265;140368;-80
2024/03/05 06:58:56;;;;;;;110.80;49.30;;;;;;;4.98;90.12;100230.31;676613;1268;139706;-79
2024/03/05 07:14:01;;;;;;;53.60;24.60;;;;;;;5.33;90.95;100225.13;672678;1264;139653;-78
2024/03/05 07:29:05;;;;;;;45.60;21.70;;;;;;;5.59;91.07;100225.80;678481;1273;138873;-79
2024/03/05 07:44:09;;;;;;;90.70;39.40;;;;;;;5.80;91.62;100233.38;678475;1265;139102;-79
2024/03/05 07:59:13;;;;;;;60.20;25.30;;;;;;;6.05;92.68;100234.11;680188;1266;139573;-78
2024/03/05 08:14:19;;;;;;;40.50;17.90;;;;;;;6.46;92.85;100235.06;679927;1269;189268;-79
2024/03/05 08:29:25;;;;;;;208.40;62.40;;;;;;;7.01;92.83;100238.92;679523;1265;139568;-78
2024/03/05 08:44:29;;;;;;;48.20;23.40;;;;;;;7.04;91.59;100252.64;679147;1268;141148;-78
2024/03/05 08:59:34;;;;;;;39.50;20.00;;;;;;;7.04;92.13;100258.55;680680;1266;140447;-78
2024/03/05 09:14:41;;;;;;;89.90;38.10;;;;;;;6.98;91.79;100268.54;676819;1260;139614;-78
2024/03/05 09:29:46;;;;;;;57.00;24.10;;;;;;;6.94;92.01;100276.80;677555;1263;139688;-77
2024/03/05 09:44:52;;;;;;;59.90;23.80;;;;;;;6.98;92.30;100275.83;675761;1264;139100;-77
2024/03/05 09:59:58;;;;;;;53.80;22.90;;;;;;;7.02;92.60;100281.27;679299;1269;139049;-77
2024/03/05 10:15:13;;;;;;;78.40;37.00;;;;;;;7.15;92.58;100290.23;681089;1264;140677;-77
2024/03/05 10:30:23;;;;;;;45.90;22.10;;;;;;;7.40;92.04;100299.05;679679;1266;140213;-76
2024/03/05 10:45:27;;;;;;;97.60;47.10;;;;;;;7.40;91.92;100295.58;678421;1263;139901;-78
2024/03/05 11:00:36;;;;;;;31.80;16.20;;;;;;;7.45;91.79;100300.25;676539;1269;139709;-79
2024/03/05 11:15:42;;;;;;;32.20;14.90;;;;;;;7.36;91.43;100308.57;675879;1266;138850;-79
2024/03/05 11:30:46;;;;;;;53.50;27.80;;;;;;;7.27;91.67;100312.88;674099;1277;139396;-76
2024/03/05 11:45:54;;;;;;;28.60;11.70;;;;;;;7.17;91.76;100318.61;673929;1264;139881;-77
2024/03/05 12:01:04;;;;;;;23.20;11.80;;;;;;;7.19;91.97;100315.37;670621;1266;139501;-76
2024/03/05 12:16:14;;;;;;;65.00;27.10;;;;;;;7.31;91.97;100320.37;672561;1259;140234;-78
2024/03/05 12:31:18;;;;;;;67.40;25.70;;;;;;;7.22;91.97;100336.05;673896;1263;140332;-75
2024/03/05 12:46:23;;;;;;;22.50;13.20;;;;;;;7.16;92.04;100343.39;670246;1273;138988;-77
2024/03/05 13:01:27;;;;;;;23.00;12.60;;;;;;;7.02;92.49;100348.61;674241;1266;139720;-76
2024/03/05 13:16:31;;;;;;;22.80;11.30;;;;;;;7.05;92.51;100354.26;674964;1263;139622;-76
2024/03/05 13:31:37;;;;;;;45.90;19.60;;;;;;;7.26;92.55;100361.25;678166;1261;139956;-77
2024/03/05 13:46:42;;;;;;;81.00;37.10;;;;;;;7.47;92.07;100376.66;677723;1266;140270;-77
2024/03/05 14:01:46;;;;;;;51.50;22.30;;;;;;;7.43;92.01;100383.88;673360;1264;139370;-77
2024/03/05 14:16:50;;;;;;;54.10;28.30;;;;;;;7.48;92.05;100390.50;673593;1263;139025;-77
2024/03/05 14:31:54;;;;;;;102.70;38.10;;;;;;;7.50;92.01;100406.00;675923;1266;139723;-78
2024/03/05 14:46:59;;;;;;;90.40;40.50;;;;;;;7.43;91.97;100425.30;672171;1267;140873;-77
2024/03/05 15:02:05;;;;;;;158.00;57.10;;;;;;;7.38;92.28;100440.80;678721;1261;140298;-77
2024/03/05 15:17:10;;;;;;;180.60;61.00;;;;;;;7.42;92.72;100457.94;671912;1273;139893;-77
2024/03/05 15:32:16;;;;;;;85.00;37.60;;;;;;;7.52;93.01;100474.41;673511;1265;138969;-76
2024/03/05 15:47:20;;;;;;;133.40;53.80;;;;;;;7.65;92.68;100491.09;678054;1262;139560;-77
2024/03/05 16:02:25;;;;;;;393.20;138.20;;;;;;;7.67;92.55;100510.45;673844;1264;140506;-77
2024/03/05 16:17:31;;;;;;;194.20;64.60;;;;;;;7.71;92.42;100525.16;670814;1264;140289;-78
2024/03/05 16:32:36;;;;;;;387.30;141.00;;;;;;;7.71;92.70;100535.56;672866;1263;140183;-77
2024/03/05 16:47:44;;;;;;;220.60;87.10;;;;;;;7.69;93.21;100558.69;675281;1265;140783;-77
2024/03/05 17:02:59;;;;;;;452.50;157.20;;;;;;;7.72;93.52;100571.54;671066;1277;141338;-76
2024/03/05 17:18:05;;;;;;;432.60;154.30;;;;;;;7.74;93.85;100594.23;673444;1261;139898;-78
2024/03/05 17:33:10;;;;;;;264.70;97.70;;;;;;;7.85;94.07;100608.25;674704;1261;139878;-77
2024/03/05 17:48:19;;;;;;;246.70;90.40;;;;;;;7.95;94.35;100627.17;672801;1264;140096;-77
2024/03/05 18:03:25;;;;;;;138.20;56.20;;;;;;;7.98;94.57;100646.71;674669;1264;139180;-77
2024/03/05 18:18:30;;;;;;;171.70;67.30;;;;;;;8.05;94.28;100657.14;671531;1265;140516;-77
2024/03/05 18:33:34;;;;;;;151.30;60.40;;;;;;;8.04;95.01;100665.73;673104;1261;139381;-77
2024/03/05 18:48:38;;;;;;;230.10;89.70;;;;;;;8.07;94.89;100661.03;673650;1264;141238;-77
2024/03/05 19:03:43;;;;;;;182.60;72.90;;;;;;;8.07;95.19;100674.96;669980;1263;139616;-78
2024/03/05 19:18:52;;;;;;;165.90;69.00;;;;;;;8.13;95.28;100681.10;672316;1265;139811;-78
2024/03/05 19:34:03;;;;;;;244.80;96.00;;;;;;;8.21;95.37;100690.84;672259;1264;139808;-78
2024/03/05 19:49:22;;;;;;;247.90;88.70;;;;;;;8.22;95.54;100696.20;671989;1264;140000;-78
2024/03/05 20:04:25;;;;;;;150.90;60.60;;;;;;;8.20;95.73;100698.09;673230;1266;139724;-78
2024/03/05 20:19:33;;;;;;;104.50;44.80;;;;;;;8.18;96.31;100702.37;673742;1264;182757;-77
2024/03/05 20:34:38;;;;;;;121.90;53.00;;;;;;;8.14;96.41;100709.05;673657;1261;139962;-78
2024/03/05 20:49:42;;;;;;;114.70;43.30;;;;;;;8.10;96.88;100718.09;675758;1265;140057;-78
2024/03/05 21:04:46;;;;;;;99.70;41.60;;;;;;;8.09;97.25;100730.52;677935;1262;140801;-78
2024/03/05 21:19:51;;;;;;;110.10;42.60;;;;;;;8.20;97.30;100737.42;675093;1261;139275;-78
2024/03/05 21:34:55;;;;;;;114.00;48.40;;;;;;;8.25;97.08;100748.61;673850;1267;139702;-77
2024/03/05 21:50:00;;;;;;;122.40;47.30;;;;;;;8.27;97.57;100754.08;677785;1260;139967;-78
2024/03/05 22:05:06;;;;;;;119.20;49.40;;;;;;;8.23;97.89;100762.30;677356;1266;139935;-78
2024/03/05 22:20:13;;;;;;;99.50;43.40;;;;;;;8.23;98.18;100767.92;677980;1262;140737;-78
2024/03/05 22:35:16;;;;;;;92.00;38.60;;;;;;;8.26;97.84;100768.88;678693;1264;140135;-78
2024/03/05 22:50:21;;;;;;;80.20;37.10;;;;;;;8.31;98.13;100780.78;678610;1264;141049;-78
2024/03/05 23:05:26;;;;;;;84.90;40.50;;;;;;;8.34;98.13;100783.19;678228;1264;140632;-78
2024/03/05 23:20:29;;;;;;;74.70;34.70;;;;;;;8.38;98.06;100785.13;676589;1263;139811;-78
2024/03/05 23:35:33;;;;;;;77.10;36.10;;;;;;;8.40;98.38;100798.43;674973;1264;139972;-77
2024/03/05 23:50:36;;;;;;;70.90;36.20;;;;;;;8.45;98.36;100809.09;677534;1263;140785;-78
